Time;durP1;ratioP1;P1;durP2;ratioP2;P2;SDS_P1;SDS_P2;PMS_P1;PMS_P2;Temp;Humidity;BMP_temperature;BMP_pressure;BME280_temperature;BME280_humidity;BME280_pressure;Samples;Min_cycle;Max_cycle;Signal;HPM_P1;HPM_P2
2023/11/02 00:01:38;;;;;;;4.40;2.07;;;;;;;17.25;78.79;94685.72;4999259;28;20649;-80
2023/11/02 00:04:04;;;;;;;4.67;1.50;;;;;;;17.40;81.99;94690.50;5008888;28;20025;-80
2023/11/02 00:06:32;;;;;;;3.40;1.73;;;;;;;17.37;79.84;94683.00;5005693;28;20059;-80
2023/11/02 00:09:28;;;;;;;2.67;1.40;;;;;;;17.36;77.12;94676.06;5001842;28;20033;-80
2023/11/02 00:11:59;;;;;;;3.80;1.50;;;;;;;17.02;81.88;94678.66;5000446;28;20016;-80
2023/11/02 00:14:40;;;;;;;4.20;1.40;;;;;;;17.34;85.08;94678.19;5019310;28;20035;-80
2023/11/02 00:17:35;;;;;;;4.47;1.73;;;;;;;17.05;79.55;94680.03;4998950;28;20033;-80
2023/11/02 00:20:07;;;;;;;3.60;1.70;;;;;;;16.32;90.69;94665.56;4998880;28;20985;-80
2023/11/02 00:22:41;;;;;;;4.23;1.37;;;;;;;16.59;89.62;94660.53;4992782;28;20026;-80
2023/11/02 00:25:07;;;;;;;5.53;1.83;;;;;;;16.71;89.64;94656.81;4996705;28;20025;-79
2023/11/02 00:27:33;;;;;;;4.30;2.00;;;;;;;16.72;93.08;94655.75;5015214;28;20112;-79
2023/11/02 00:29:59;;;;;;;10.60;1.90;;;;;;;16.47;95.82;94649.97;4998549;28;20018;-79
2023/11/02 00:32:25;;;;;;;5.23;2.43;;;;;;;16.36;93.59;94632.22;4999272;28;20173;-79
2023/11/02 00:34:51;;;;;;;4.93;2.00;;;;;;;16.31;95.59;94624.97;5007908;28;20018;-79
2023/11/02 00:37:16;;;;;;;4.93;2.10;;;;;;;16.59;94.57;94618.88;5013827;28;20041;-79
2023/11/02 00:43:21;;;;;;;4.90;2.13;;;;;;;16.37;96.30;94592.19;5023319;28;20497;-79
2023/11/02 00:45:48;;;;;;;8.40;2.63;;;;;;;16.45;94.62;94591.81;5005497;28;20024;-79
2023/11/02 00:48:20;;;;;;;4.40;2.13;;;;;;;16.03;100.00;94593.91;5013623;28;20032;-79
2023/11/02 00:51:17;;;;;;;5.97;2.70;;;;;;;16.09;97.99;94592.94;5014818;28;20040;-78
2023/11/02 00:53:46;;;;;;;6.60;2.70;;;;;;;16.15;100.00;94585.91;5027920;28;20108;-78
2023/11/02 00:56:14;;;;;;;6.23;2.67;;;;;;;15.74;100.00;94591.16;4998020;28;20036;-79
2023/11/02 00:58:53;;;;;;;7.30;2.67;;;;;;;16.15;100.00;94575.28;5003176;28;20025;-79
2023/11/02 01:01:21;;;;;;;6.80;2.97;;;;;;;15.79;100.00;94567.41;5010502;28;20025;-79
2023/11/02 01:03:53;;;;;;;5.93;2.90;;;;;;;15.88;100.00;94578.44;4998890;28;20036;-78
2023/11/02 01:06:30;;;;;;;4.93;2.40;;;;;;;15.92;100.00;94570.84;4997091;28;20021;-79
2023/11/02 01:09:00;;;;;;;6.00;2.80;;;;;;;16.29;100.00;94579.28;5010974;28;20545;-78
2023/11/02 01:11:31;;;;;;;6.03;3.00;;;;;;;16.09;100.00;94563.75;5013412;28;20479;-79
2023/11/02 01:13:57;;;;;;;7.93;3.27;;;;;;;15.74;100.00;94559.34;4996183;28;20399;-79
2023/11/02 01:16:23;;;;;;;5.57;3.00;;;;;;;15.63;100.00;94554.84;4992774;28;20144;-78
2023/11/02 01:18:49;;;;;;;5.03;2.80;;;;;;;15.52;100.00;94556.44;5009952;28;20027;-78
2023/11/02 01:21:15;;;;;;;7.80;4.13;;;;;;;15.47;100.00;94539.63;4994790;28;20025;-79
2023/11/02 01:23:41;;;;;;;7.63;3.80;;;;;;;15.78;100.00;94533.97;5013194;28;20186;-78
2023/11/02 01:26:50;;;;;;;5.80;3.20;;;;;;;15.47;100.00;94537.78;5009277;28;20030;-78
2023/11/02 01:29:15;;;;;;;6.13;3.53;;;;;;;15.72;100.00;94526.94;5021846;28;20042;-79
2023/11/02 01:31:41;;;;;;;8.67;4.20;;;;;;;15.83;100.00;94524.50;5003273;28;20032;-79
2023/11/02 01:34:12;;;;;;;11.80;4.00;;;;;;;15.70;100.00;94515.00;4997627;28;20021;-78
2023/11/02 01:36:39;;;;;;;7.17;3.73;;;;;;;15.73;100.00;94515.34;4999701;28;20022;-79
2023/11/02 01:39:27;;;;;;;11.13;3.93;;;;;;;15.74;100.00;94505.53;5015467;28;20026;-79
2023/11/02 01:42:14;;;;;;;9.17;3.90;;;;;;;15.82;100.00;94497.19;5009157;28;20031;-78
2023/11/02 01:45:03;;;;;;;8.37;4.83;;;;;;;15.56;100.00;94491.38;5007402;28;20025;-79
2023/11/02 01:47:47;;;;;;;8.27;5.13;;;;;;;15.95;100.00;94490.84;5014164;28;20025;-78
2023/11/02 01:50:33;;;;;;;8.40;4.80;;;;;;;15.89;100.00;94486.47;4994286;28;20919;-78
2023/11/02 01:53:15;;;;;;;9.57;4.97;;;;;;;15.56;100.00;94479.97;5005311;28;20145;-79
2023/11/02 01:56:07;;;;;;;27.07;6.00;;;;;;;15.80;100.00;94486.06;4995683;28;20017;-78
2023/11/02 01:58:38;;;;;;;10.93;5.30;;;;;;;15.84;100.00;94476.59;4988913;28;20067;-79
2023/11/02 02:01:04;;;;;;;8.43;5.20;;;;;;;15.44;100.00;94473.88;5001064;28;20029;-79
2023/11/02 02:03:55;;;;;;;9.30;5.67;;;;;;;15.72;100.00;94465.19;4989592;28;20048;-80
2023/11/02 02:06:36;;;;;;;10.27;4.90;;;;;;;15.63;100.00;94448.84;5000416;28;20117;-78
2023/11/02 02:09:21;;;;;;;8.77;4.83;;;;;;;15.37;100.00;94450.16;5018866;28;20055;-78
2023/11/02 02:12:01;;;;;;;9.07;3.90;;;;;;;15.41;100.00;94430.09;4991034;28;20021;-78
2023/11/02 02:15:04;;;;;;;7.30;4.10;;;;;;;15.62;100.00;94417.25;4998315;28;20501;-78
2023/11/02 02:18:08;;;;;;;7.53;4.60;;;;;;;15.80;100.00;94414.50;5009688;28;20051;-78
2023/11/02 02:20:44;;;;;;;9.50;5.60;;;;;;;15.51;100.00;94416.25;4983257;28;20060;-78
2023/11/02 02:23:37;;;;;;;9.43;5.00;;;;;;;15.99;100.00;94399.19;5014323;28;20040;-78
2023/11/02 02:26:18;;;;;;;8.23;4.40;;;;;;;15.50;100.00;94388.97;5007070;28;20029;-79
2023/11/02 02:29:08;;;;;;;6.73;3.63;;;;;;;15.69;100.00;94387.00;5021035;28;21079;-79
2023/11/02 02:32:14;;;;;;;9.27;4.73;;;;;;;15.14;100.00;94382.13;5028523;28;20490;-78
2023/11/02 02:35:11;;;;;;;8.50;4.33;;;;;;;15.26;100.00;94374.19;5007190;28;20033;-79
2023/11/02 02:37:47;;;;;;;7.40;3.40;;;;;;;15.12;100.00;94373.59;4996203;28;20377;-79
2023/11/02 02:40:21;;;;;;;7.43;3.90;;;;;;;15.70;100.00;94370.03;4997864;28;20083;-78
2023/11/02 02:42:59;;;;;;;6.83;3.57;;;;;;;16.33;100.00;94356.78;5007642;28;20395;-79
2023/11/02 02:45:27;;;;;;;7.30;3.43;;;;;;;15.72;100.00;94365.28;5005253;28;20034;-79
2023/11/02 02:47:56;;;;;;;7.60;3.80;;;;;;;15.16;100.00;94366.84;4998851;28;20455;-79
2023/11/02 02:50:25;;;;;;;6.40;3.17;;;;;;;15.64;100.00;94354.25;5005896;28;20064;-78
2023/11/02 02:52:54;;;;;;;5.33;2.90;;;;;;;15.27;100.00;94350.09;5006339;28;20045;-86
2023/11/02 02:55:21;;;;;;;4.90;2.40;;;;;;;14.90;100.00;94340.88;5006305;28;20033;-86
2023/11/02 02:57:53;;;;;;;5.57;2.87;;;;;;;14.56;100.00;94336.16;4997594;28;20037;-86
2023/11/02 03:00:22;;;;;;;4.73;2.57;;;;;;;15.22;100.00;94342.03;4999363;28;20646;-85
2023/11/02 03:02:51;;;;;;;5.30;2.80;;;;;;;15.57;100.00;94338.50;5030633;28;20215;-86
2023/11/02 03:05:18;;;;;;;5.17;2.40;;;;;;;16.05;99.34;94324.00;5006513;28;20113;-85
2023/11/02 03:07:47;;;;;;;5.80;2.87;;;;;;;16.73;93.17;94308.84;5023368;28;20040;-86
2023/11/02 03:10:14;;;;;;;3.97;1.87;;;;;;;16.41;95.31;94317.41;5018028;28;20033;-84
2023/11/02 03:12:42;;;;;;;5.20;2.03;;;;;;;16.88;85.73;94308.28;5009942;28;20021;-86
2023/11/02 03:15:18;;;;;;;6.30;2.30;;;;;;;17.49;83.67;94289.63;5000094;28;20856;-86
2023/11/02 03:18:02;;;;;;;4.43;2.10;;;;;;;17.29;86.19;94276.91;5009227;28;20030;-86
2023/11/02 03:20:28;;;;;;;7.47;2.20;;;;;;;17.87;80.30;94276.22;5021841;28;20084;-85
2023/11/02 03:23:17;;;;;;;5.47;2.40;;;;;;;17.68;80.64;94273.09;5024935;28;20037;-85
2023/11/02 03:26:25;;;;;;;4.73;2.30;;;;;;;17.76;77.41;94282.47;4989225;28;20025;-86
2023/11/02 03:29:09;;;;;;;8.30;2.20;;;;;;;17.89;78.62;94274.09;4969237;28;20049;-86
2023/11/02 03:31:37;;;;;;;5.32;2.10;;;;;;;17.33;77.98;94272.69;4992121;28;20053;-86
2023/11/02 03:34:19;;;;;;;4.67;1.90;;;;;;;17.44;80.29;94261.16;5015955;28;20047;-86
2023/11/02 03:36:54;;;;;;;5.10;2.07;;;;;;;17.84;78.52;94257.28;5000610;28;20032;-85
2023/11/02 03:39:20;;;;;;;5.33;2.40;;;;;;;17.18;84.42;94247.59;5000183;28;20063;-86
2023/11/02 03:42:07;;;;;;;4.20;2.07;;;;;;;16.01;91.04;94241.47;4994104;28;20051;-86
2023/11/02 03:45:09;;;;;;;4.50;2.20;;;;;;;16.92;88.63;94229.75;5017646;28;20041;-86
2023/11/02 03:48:00;;;;;;;4.80;2.00;;;;;;;17.38;88.48;94243.53;5009056;28;20029;-86
2023/11/02 03:50:45;;;;;;;3.60;1.63;;;;;;;17.28;81.53;94209.69;5005225;28;20061;-86
2023/11/02 03:53:14;;;;;;;4.57;1.83;;;;;;;16.51;86.50;94197.38;4998888;28;20316;-86
2023/11/02 03:56:13;;;;;;;5.53;1.70;;;;;;;16.67;82.83;94198.38;5024373;28;20029;-85
2023/11/02 03:58:49;;;;;;;4.30;1.63;;;;;;;17.01;79.94;94204.38;4992826;28;21162;-86
2023/11/02 04:01:50;;;;;;;3.97;1.50;;;;;;;16.94;80.36;94209.06;5003545;28;20115;-86
2023/11/02 04:04:30;;;;;;;4.53;1.30;;;;;;;17.74;74.22;94202.16;4996855;28;20123;-86
2023/11/02 04:07:17;;;;;;;2.30;1.23;;;;;;;18.05;71.50;94221.84;5016760;28;20044;-85
2023/11/02 04:09:51;;;;;;;3.93;2.13;;;;;;;18.00;71.77;94211.16;5028362;28;20030;-85
2023/11/02 04:12:32;;;;;;;3.80;1.30;;;;;;;17.72;76.13;94211.44;5012640;28;20041;-86
2023/11/02 04:15:00;;;;;;;5.93;1.90;;;;;;;18.27;71.83;94213.72;4996466;28;20045;-85
2023/11/02 04:17:27;;;;;;;3.87;1.53;;;;;;;18.69;65.98;94199.59;5001019;28;20041;-86
2023/11/02 04:19:53;;;;;;;3.67;1.73;;;;;;;18.50;68.82;94183.25;5023801;28;20528;-86
2023/11/02 04:22:20;;;;;;;11.57;5.83;;;;;;;18.60;68.02;94171.84;4997352;28;20018;-85
2023/11/02 04:24:46;;;;;;;7.37;3.97;;;;;;;18.23;72.34;94148.00;4994740;28;20040;-86
2023/11/02 04:27:12;;;;;;;4.73;2.23;;;;;;;18.40;69.60;94148.59;4998092;28;20061;-86
2023/11/02 04:29:37;;;;;;;7.60;3.40;;;;;;;19.13;64.96;94139.84;5000693;28;20029;-85
2023/11/02 04:32:03;;;;;;;5.23;2.80;;;;;;;19.02;67.77;94145.16;5004370;28;20037;-86
2023/11/02 04:34:29;;;;;;;5.10;1.73;;;;;;;18.39;69.77;94147.00;5036165;28;20033;-85
2023/11/02 04:36:54;;;;;;;3.90;1.70;;;;;;;18.17;66.76;94117.09;5002388;28;20028;-85
2023/11/02 04:39:23;;;;;;;2.97;1.70;;;;;;;18.21;71.01;94094.22;5000633;28;20613;-85
2023/11/02 04:41:49;;;;;;;4.67;1.50;;;;;;;17.35;76.96;94084.63;4990885;28;20045;-85
2023/11/02 04:44:14;;;;;;;5.57;1.43;;;;;;;17.28;78.97;94084.06;4994014;28;20029;-85
2023/11/02 04:46:43;;;;;;;2.97;1.60;;;;;;;17.83;79.97;94083.66;4995619;28;20033;-85
2023/11/02 04:49:09;;;;;;;3.47;1.77;;;;;;;17.89;80.72;94089.81;4998355;28;20025;-86
2023/11/02 04:51:35;;;;;;;3.23;1.50;;;;;;;17.42;80.61;94082.56;5001764;28;20028;-85
2023/11/02 04:54:01;;;;;;;3.00;1.50;;;;;;;17.94;76.75;94107.66;5000982;28;20022;-86
2023/11/02 04:56:26;;;;;;;2.63;1.20;;;;;;;18.60;68.92;94111.44;5027772;28;20025;-86
2023/11/02 04:58:52;;;;;;;7.27;1.70;;;;;;;18.50;71.29;94111.41;5017676;28;20096;-85
2023/11/02 05:01:21;;;;;;;2.30;1.13;;;;;;;17.93;74.64;94106.84;4990161;28;20060;-85
2023/11/02 05:03:51;;;;;;;9.57;1.50;;;;;;;18.67;73.32;94087.22;5002759;28;20036;-86
2023/11/02 05:06:16;;;;;;;3.30;1.33;;;;;;;18.68;71.23;94086.19;4995905;28;20029;-85
2023/11/02 05:08:42;;;;;;;2.50;1.40;;;;;;;18.51;69.01;94078.41;5018377;28;20037;-86
2023/11/02 05:11:07;;;;;;;4.17;1.63;;;;;;;18.18;72.00;94060.19;5002878;28;20036;-86
2023/11/02 05:13:33;;;;;;;2.63;1.33;;;;;;;18.66;67.58;94048.38;5006692;28;20086;-85
2023/11/02 05:15:59;;;;;;;3.17;1.50;;;;;;;18.46;66.41;94019.84;5000451;28;20087;-85
2023/11/02 05:18:24;;;;;;;3.37;1.40;;;;;;;18.61;70.10;94016.38;4995978;28;20029;-91
2023/11/02 05:20:57;;;;;;;2.53;1.30;;;;;;;18.28;67.86;93996.38;5001263;28;20033;-86
2023/11/02 05:23:23;;;;;;;2.03;1.13;;;;;;;18.53;67.52;93977.00;5016298;28;20036;-87
2023/11/02 05:25:49;;;;;;;4.23;1.03;;;;;;;18.30;64.91;93983.59;5014647;28;20111;-86
2023/11/02 05:28:20;;;;;;;3.83;1.20;;;;;;;17.78;66.97;93971.97;4982893;28;20108;-86
2023/11/02 05:30:46;;;;;;;2.87;1.00;;;;;;;17.31;73.40;93972.78;4991813;28;20077;-86
2023/11/02 05:33:12;;;;;;;2.13;1.17;;;;;;;17.14;73.96;93967.63;4988434;28;20053;-87
2023/11/02 05:35:38;;;;;;;5.40;1.23;;;;;;;16.38;84.60;93959.00;5016187;28;20040;-86
2023/11/02 05:38:03;;;;;;;2.47;1.37;;;;;;;16.51;84.85;93953.28;4991342;28;20026;-87
2023/11/02 05:40:29;;;;;;;5.97;0.93;;;;;;;16.69;82.56;93970.66;5022372;28;20029;-87
2023/11/02 05:42:54;;;;;;;3.10;0.80;;;;;;;16.87;82.91;93972.19;5009863;28;20029;-78
2023/11/02 05:45:21;;;;;;;4.30;1.40;;;;;;;16.44;80.49;93981.88;4991826;28;20022;-86
2023/11/02 05:47:46;;;;;;;2.77;1.07;;;;;;;16.49;84.24;93968.63;5021968;28;20069;-86
2023/11/02 05:50:12;;;;;;;4.20;1.40;;;;;;;16.60;79.79;93954.44;4999936;28;20036;-87
2023/11/02 05:52:37;;;;;;;4.27;1.10;;;;;;;16.67;81.09;93935.63;5009708;28;20394;-87
2023/11/02 05:55:05;;;;;;;5.00;0.90;;;;;;;16.39;84.17;93936.69;5027052;28;20026;-86
2023/11/02 05:57:30;;;;;;;5.77;1.10;;;;;;;16.72;80.67;93909.13;5009369;28;20117;-86
2023/11/02 05:59:58;;;;;;;2.90;1.20;;;;;;;16.38;79.59;93884.72;4997224;28;20025;-87
2023/11/02 06:02:24;;;;;;;3.60;0.90;;;;;;;16.95;77.70;93868.16;5015473;28;20037;-86
2023/11/02 06:04:49;;;;;;;1.30;0.70;;;;;;;16.12;81.48;93876.53;5006856;28;20017;-86
2023/11/02 06:07:15;;;;;;;1.93;0.90;;;;;;;16.38;79.59;93874.91;5005530;28;20131;-87
2023/11/02 06:09:56;;;;;;;2.90;1.10;;;;;;;16.57;78.84;93869.22;4996618;28;20029;-87
2023/11/02 06:12:23;;;;;;;1.90;0.80;;;;;;;16.20;77.65;93865.47;5019885;28;20442;-88
2023/11/02 06:14:49;;;;;;;3.83;1.50;;;;;;;16.44;79.20;93873.09;5017611;28;20031;-87
2023/11/02 06:17:16;;;;;;;1.70;0.63;;;;;;;16.54;76.25;93886.44;4998568;28;20021;-85
2023/11/02 06:19:42;;;;;;;2.03;0.70;;;;;;;16.49;76.90;93862.50;5010775;28;20040;-86
2023/11/02 06:22:08;;;;;;;2.57;1.00;;;;;;;16.32;77.37;93869.81;5000287;28;20099;-85
2023/11/02 06:24:33;;;;;;;1.57;0.70;;;;;;;16.53;78.38;93847.69;5017246;28;20026;-85
2023/11/02 06:26:59;;;;;;;2.33;0.90;;;;;;;16.54;73.81;93844.00;5007787;28;20036;-83
2023/11/02 06:29:24;;;;;;;1.50;0.70;;;;;;;16.70;74.40;93851.00;5002419;28;20128;-86
2023/11/02 06:31:50;;;;;;;2.30;0.73;;;;;;;17.15;74.33;93840.94;5017578;28;20039;-84
2023/11/02 06:34:17;;;;;;;1.20;0.70;;;;;;;17.12;73.04;93831.63;4989613;28;20082;-84
2023/11/02 06:36:43;;;;;;;3.67;0.90;;;;;;;16.97;71.32;93823.59;5020662;28;20071;-83
2023/11/02 06:39:10;;;;;;;2.63;0.87;;;;;;;16.56;74.66;93817.19;5014683;28;20017;-84
2023/11/02 06:41:37;;;;;;;1.93;0.73;;;;;;;16.78;73.62;93819.75;5019076;28;20030;-84
2023/11/02 06:44:03;;;;;;;3.13;0.90;;;;;;;17.39;68.34;93812.88;5020978;28;20033;-83
2023/11/02 06:46:29;;;;;;;2.43;0.83;;;;;;;17.04;66.80;93810.88;5010675;28;20060;-83
2023/11/02 06:48:56;;;;;;;1.87;0.83;;;;;;;17.46;66.19;93825.13;5018360;28;20499;-84
2023/11/02 06:51:25;;;;;;;2.60;0.90;;;;;;;16.64;67.05;93840.63;4999258;28;20021;-83
2023/11/02 06:53:51;;;;;;;3.40;1.13;;;;;;;17.73;63.64;93860.28;5013288;28;20040;-84
2023/11/02 06:56:17;;;;;;;1.53;0.73;;;;;;;17.73;63.78;93878.09;4998616;28;20029;-84
2023/11/02 06:58:56;;;;;;;3.67;1.00;;;;;;;17.67;65.27;93886.06;5020682;28;20115;-85
2023/11/02 07:01:22;;;;;;;2.67;0.83;;;;;;;17.89;68.36;93899.16;5004780;28;20025;-85
2023/11/02 07:03:47;;;;;;;5.37;1.30;;;;;;;18.12;63.40;93929.81;5029727;28;20086;-86
2023/11/02 07:06:13;;;;;;;2.13;0.70;;;;;;;18.11;64.45;93959.34;5020802;28;20036;-85
2023/11/02 07:08:39;;;;;;;3.27;0.90;;;;;;;18.62;64.52;93978.09;5000149;28;20079;-85
2023/11/02 07:11:05;;;;;;;12.33;3.63;;;;;;;19.68;62.20;93981.00;5011424;28;20028;-86
2023/11/02 07:13:31;;;;;;;3.00;0.87;;;;;;;19.20;64.33;93993.84;5023868;28;20025;-86
2023/11/02 07:15:57;;;;;;;3.10;0.60;;;;;;;18.27;66.30;93987.56;5002966;28;20036;-87
2023/11/02 07:18:23;;;;;;;3.00;0.70;;;;;;;18.23;65.88;93983.84;5022756;28;20044;-87
2023/11/02 07:20:49;;;;;;;4.07;0.93;;;;;;;18.97;67.73;94003.97;5006421;28;20025;-87
2023/11/02 07:23:14;;;;;;;4.27;0.87;;;;;;;19.65;65.41;93990.34;5011858;28;20025;-87
2023/11/02 07:25:40;;;;;;;2.07;0.67;;;;;;;19.02;66.97;93985.31;5005295;28;20041;-87
2023/11/02 07:28:09;;;;;;;3.47;1.03;;;;;;;18.43;71.87;93977.78;5009778;28;20068;-87
2023/11/02 07:30:35;;;;;;;2.67;1.00;;;;;;;19.19;67.99;93977.06;5001830;28;20089;-87
2023/11/02 07:33:00;;;;;;;2.93;0.90;;;;;;;19.08;69.00;93954.16;4999994;28;20030;-87
2023/11/02 07:35:38;;;;;;;2.67;0.80;;;;;;;19.86;68.88;93959.06;5006397;28;20483;-87
2023/11/02 07:38:07;;;;;;;3.87;1.37;;;;;;;19.12;79.81;93962.41;5019260;28;20041;-87
2023/11/02 07:40:33;;;;;;;6.27;1.50;;;;;;;19.90;75.58;93968.13;5026921;28;20032;-87
2023/11/02 07:42:58;;;;;;;1.43;0.80;;;;;;;20.15;72.35;93958.41;5005706;28;20033;-87
2023/11/02 07:45:25;;;;;;;3.13;1.13;;;;;;;20.49;70.00;93948.63;4998597;28;20407;-85
2023/11/02 07:47:50;;;;;;;2.17;1.10;;;;;;;19.57;77.48;93950.06;5015837;28;20077;-86
2023/11/02 07:50:16;;;;;;;3.80;1.23;;;;;;;20.29;75.85;93954.09;5002234;28;20033;-86
2023/11/02 07:52:41;;;;;;;2.93;1.07;;;;;;;20.24;74.34;93948.75;5011375;28;20037;-85
2023/11/02 07:55:09;;;;;;;3.80;1.70;;;;;;;19.65;72.91;93936.19;5035679;28;20088;-86
2023/11/02 07:57:35;;;;;;;3.83;1.73;;;;;;;20.24;73.02;93935.41;5019950;28;20030;-85
2023/11/02 08:00:02;;;;;;;3.83;1.77;;;;;;;20.21;75.77;93927.97;5004497;28;20020;-86
2023/11/02 08:02:37;;;;;;;3.87;1.77;;;;;;;20.67;73.47;93914.34;5017508;28;20035;-86
2023/11/02 08:05:05;;;;;;;3.77;1.77;;;;;;;20.43;73.22;93914.22;5016291;28;20025;-86
2023/11/02 08:07:30;;;;;;;2.00;1.27;;;;;;;20.05;72.16;93921.88;5000983;28;20029;-86
2023/11/02 08:09:56;;;;;;;5.50;1.60;;;;;;;19.95;70.39;93927.28;5003883;28;20037;-85
2023/11/02 08:12:21;;;;;;;3.33;1.23;;;;;;;19.25;76.65;93913.91;5003878;28;20084;-86
2023/11/02 08:14:49;;;;;;;5.20;1.40;;;;;;;19.33;72.67;93907.22;4995152;28;20033;-86
2023/11/02 08:17:17;;;;;;;9.03;6.30;;;;;;;19.16;81.44;93900.31;5012699;28;20454;-85
2023/11/02 08:19:46;;;;;;;6.93;4.20;;;;;;;18.98;79.74;93887.56;5036720;28;20029;-85
2023/11/02 08:22:12;;;;;;;8.33;3.03;;;;;;;18.55;82.12;93895.81;5025175;28;20422;-85
2023/11/02 08:24:38;;;;;;;7.73;1.70;;;;;;;17.36;95.84;93889.63;4999402;28;20097;-86
2023/11/02 08:27:05;;;;;;;5.93;1.60;;;;;;;17.30;90.60;93891.44;5006842;28;20025;-86
2023/11/02 08:29:32;;;;;;;8.57;1.63;;;;;;;18.01;89.90;93879.53;5004407;28;20022;-86
2023/11/02 08:31:58;;;;;;;2.73;1.37;;;;;;;18.33;89.31;93872.13;5019253;28;20041;-86
2023/11/02 08:34:23;;;;;;;5.87;1.50;;;;;;;18.03;94.09;93880.06;5036385;28;20048;-86
2023/11/02 08:36:49;;;;;;;3.73;1.50;;;;;;;17.55;100.00;93874.03;5006697;28;20032;-86
2023/11/02 08:39:21;;;;;;;3.27;1.63;;;;;;;18.02;96.07;93865.97;4997522;28;20021;-85
2023/11/02 08:41:47;;;;;;;2.47;1.20;;;;;;;18.40;88.69;93852.44;5003426;28;20100;-85
2023/11/02 08:44:13;;;;;;;2.47;1.23;;;;;;;18.37;93.25;93849.22;5001054;28;20175;-85
2023/11/02 08:46:39;;;;;;;3.30;1.40;;;;;;;18.04;93.19;93842.56;4999143;28;20124;-86
2023/11/02 08:49:04;;;;;;;5.40;1.90;;;;;;;18.44;93.63;93837.53;5016743;28;20519;-87
2023/11/02 08:51:30;;;;;;;41.53;13.43;;;;;;;18.07;93.51;93836.69;5009610;28;20033;-86
2023/11/02 08:53:56;;;;;;;39.47;14.07;;;;;;;17.98;92.58;93830.34;5013467;28;20029;-86
2023/11/02 08:56:21;;;;;;;20.63;8.17;;;;;;;17.36;99.94;93813.38;5015410;28;20553;-86
2023/11/02 08:58:54;;;;;;;24.97;8.53;;;;;;;18.02;95.80;93823.41;5014208;28;20040;-86
2023/11/02 09:01:30;;;;;;;26.77;8.90;;;;;;;17.86;97.46;93827.09;5020801;28;20025;-86
2023/11/02 09:03:57;;;;;;;36.10;12.73;;;;;;;17.67;100.00;93832.91;5024028;28;20509;-86
2023/11/02 09:06:24;;;;;;;26.97;9.00;;;;;;;17.35;100.00;93838.38;5007697;28;20029;-84
2023/11/02 09:08:51;;;;;;;36.83;10.13;;;;;;;18.17;100.00;93843.91;5023047;28;20508;-84
2023/11/02 09:11:18;;;;;;;21.50;7.30;;;;;;;17.84;95.28;93832.69;5019238;28;20029;-84
2023/11/02 09:13:45;;;;;;;24.83;8.13;;;;;;;17.85;100.00;93834.28;5005300;28;20064;-84
2023/11/02 09:16:11;;;;;;;28.70;8.63;;;;;;;18.23;96.14;93823.44;4999081;28;20025;-84
2023/11/02 09:18:38;;;;;;;13.13;4.27;;;;;;;17.96;97.22;93824.47;5021764;28;20029;-84
2023/11/02 09:21:04;;;;;;;6.83;2.60;;;;;;;18.61;98.49;93811.41;5022393;28;20021;-84
2023/11/02 09:23:32;;;;;;;5.17;1.67;;;;;;;17.26;100.00;93809.91;5003445;28;20113;-84
2023/11/02 09:25:58;;;;;;;4.33;1.53;;;;;;;17.78;100.00;93803.72;4995279;28;20025;-85
2023/11/02 09:28:23;;;;;;;4.07;1.50;;;;;;;18.03;100.00;93808.25;5003596;28;20103;-83
2023/11/02 09:30:51;;;;;;;10.40;3.60;;;;;;;18.58;95.86;93794.16;5002872;28;20548;-84
2023/11/02 09:33:18;;;;;;;14.77;4.27;;;;;;;17.93;98.29;93806.38;5035024;28;20037;-86
2023/11/02 09:35:44;;;;;;;11.53;3.90;;;;;;;18.01;100.00;93791.78;5001341;28;20483;-85
2023/11/02 09:38:10;;;;;;;19.63;6.97;;;;;;;18.29;100.00;93775.28;5012864;28;20079;-86
2023/11/02 09:40:37;;;;;;;7.17;2.63;;;;;;;17.96;100.00;93781.91;5000137;28;20029;-86
2023/11/02 09:43:04;;;;;;;8.77;2.93;;;;;;;17.74;100.00;93768.03;5024688;28;20021;-86
2023/11/02 09:45:31;;;;;;;8.50;2.00;;;;;;;17.65;100.00;93760.59;5005177;28;20055;-85
2023/11/02 09:47:56;;;;;;;5.80;1.63;;;;;;;17.51;100.00;93754.19;5019667;28;20040;-86
2023/11/02 09:50:26;;;;;;;6.40;2.63;;;;;;;17.82;100.00;93743.63;5000529;28;20383;-85
2023/11/02 09:52:54;;;;;;;5.27;1.70;;;;;;;17.49;100.00;93735.03;5027304;28;20060;-85
2023/11/02 09:55:21;;;;;;;3.83;1.80;;;;;;;18.61;97.15;93723.59;5008303;28;20100;-86
2023/11/02 09:57:48;;;;;;;5.53;1.40;;;;;;;18.96;99.60;93714.72;5016978;28;20048;-85
2023/11/02 10:00:19;;;;;;;5.50;1.57;;;;;;;18.09;100.00;93714.91;5019755;28;20029;-86
2023/11/02 10:02:55;;;;;;;4.33;1.60;;;;;;;19.30;95.80;93719.34;5003897;28;20025;-85
2023/11/02 10:05:22;;;;;;;6.00;2.13;;;;;;;19.61;90.79;93727.16;5022886;28;20498;-86
2023/11/02 10:07:51;;;;;;;9.50;4.07;;;;;;;18.84;94.19;93727.53;5022205;28;20049;-85
2023/11/02 10:10:17;;;;;;;11.07;4.37;;;;;;;19.68;90.58;93744.47;5005921;28;20020;-86
2023/11/02 10:12:43;;;;;;;12.17;5.13;;;;;;;18.65;99.69;93734.50;5019183;28;20394;-86
2023/11/02 10:15:11;;;;;;;9.63;4.20;;;;;;;18.94;99.86;93751.47;5006706;28;20014;-86
2023/11/02 10:17:40;;;;;;;5.13;2.17;;;;;;;19.92;88.63;93763.25;5031888;28;20163;-86
2023/11/02 10:20:13;;;;;;;4.67;1.93;;;;;;;19.45;91.37;93775.25;4998935;28;20025;-86
2023/11/02 10:22:43;;;;;;;5.30;1.73;;;;;;;19.14;91.95;93795.88;5012888;28;20026;-89
2023/11/02 10:25:13;;;;;;;3.67;1.97;;;;;;;20.26;86.08;93807.84;4995612;28;20448;-85
2023/11/02 10:27:41;;;;;;;5.33;2.60;;;;;;;19.81;90.61;93820.41;4998788;28;20026;-87
2023/11/02 10:30:09;;;;;;;4.83;2.17;;;;;;;18.84;97.20;93821.53;4997743;28;20021;-88
2023/11/02 10:32:38;;;;;;;7.27;2.40;;;;;;;18.18;100.00;93828.75;5003269;28;20037;-88
2023/11/02 10:35:04;;;;;;;11.80;3.67;;;;;;;18.67;98.89;93823.66;5003456;28;20049;-87
2023/11/02 10:37:31;;;;;;;7.43;3.30;;;;;;;19.10;98.61;93820.69;5003945;28;20415;-87
2023/11/02 10:39:57;;;;;;;6.77;3.07;;;;;;;19.90;90.42;93815.28;5025310;28;20331;-87
2023/11/02 10:42:28;;;;;;;8.63;3.37;;;;;;;20.44;88.09;93817.81;4997575;28;20083;-88
2023/11/02 10:44:56;;;;;;;20.30;6.43;;;;;;;20.44;84.09;93811.69;4993097;28;20058;-88
2023/11/02 10:47:29;;;;;;;8.93;4.30;;;;;;;20.70;82.94;93809.63;4997911;28;20527;-87
2023/11/02 10:49:57;;;;;;;9.57;5.03;;;;;;;20.29;88.54;93815.28;5004259;28;20541;-88
2023/11/02 10:52:38;;;;;;;10.73;4.27;;;;;;;20.28;87.31;93816.34;5032546;28;20061;-87
2023/11/02 10:55:35;;;;;;;6.53;3.03;;;;;;;20.02;93.86;93819.22;4998090;28;20021;-87
2023/11/02 10:58:02;;;;;;;6.23;2.90;;;;;;;19.65;94.59;93833.03;5020041;28;20056;-88
2023/11/02 11:00:29;;;;;;;7.43;2.67;;;;;;;20.17;93.95;93820.97;5021661;28;20032;-88
2023/11/02 11:02:56;;;;;;;68.70;40.63;;;;;;;19.61;92.57;93815.94;5017067;28;20044;-90
2023/11/02 11:05:38;;;;;;;10.43;3.90;;;;;;;19.14;100.00;93806.53;5000627;28;20017;-87
2023/11/02 11:08:07;;;;;;;2.57;1.30;;;;;;;19.39;100.00;93805.66;5024223;28;20032;-88
2023/11/02 11:10:32;;;;;;;3.23;1.27;;;;;;;19.70;98.38;93803.66;4998729;28;20107;-88
2023/11/02 11:13:12;;;;;;;3.53;1.20;;;;;;;19.46;100.00;93792.84;5020101;28;20049;-88
2023/11/02 11:15:41;;;;;;;4.57;1.63;;;;;;;19.03;100.00;93787.13;5001186;28;20057;-87
2023/11/02 11:18:07;;;;;;;4.20;1.93;;;;;;;18.65;100.00;93780.56;5018087;28;20056;-87
2023/11/02 11:20:33;;;;;;;7.53;3.40;;;;;;;18.98;100.00;93779.19;5034913;28;20025;-86
2023/11/02 11:23:04;;;;;;;4.40;2.07;;;;;;;19.07;100.00;93777.53;5002660;28;20025;-86
2023/11/02 11:25:29;;;;;;;3.13;1.27;;;;;;;19.59;100.00;93769.31;5018494;28;20096;-86
2023/11/02 11:27:55;;;;;;;2.37;1.00;;;;;;;19.20;100.00;93776.16;5020607;28;20109;-87
2023/11/02 11:30:20;;;;;;;2.30;0.80;;;;;;;18.90;100.00;93774.41;5001979;28;20071;-86
2023/11/02 11:32:47;;;;;;;2.93;0.87;;;;;;;19.03;100.00;93776.47;5005553;28;20037;-86
2023/11/02 11:35:14;;;;;;;2.60;1.10;;;;;;;18.89;100.00;93777.34;4999145;28;20030;-87
2023/11/02 11:37:57;;;;;;;3.73;1.17;;;;;;;18.27;100.00;93784.56;5005534;28;20116;-86
2023/11/02 11:40:44;;;;;;;5.47;1.08;;;;;;;18.86;100.00;93773.34;5010939;28;20026;-86
2023/11/02 11:43:20;;;;;;;4.00;1.40;;;;;;;18.82;100.00;93769.63;5007265;28;20057;-86
2023/11/02 11:45:45;;;;;;;4.57;1.60;;;;;;;18.63;100.00;93765.91;5020481;28;20021;-87
2023/11/02 11:48:20;;;;;;;3.17;0.80;;;;;;;18.74;100.00;93755.00;5015267;28;20578;-85
2023/11/02 11:50:46;;;;;;;1.17;0.63;;;;;;;18.64;100.00;93755.00;5008573;28;20641;-86